createdAt,value
2023-01-27T00:01:25.825Z,3.04
2023-01-27T00:03:56.190Z,3.07
2023-01-27T00:06:26.070Z,3.08
2023-01-27T00:08:55.750Z,3.08
2023-01-27T00:11:38.121Z,3.11
2023-01-27T00:14:10.242Z,3.13
2023-01-27T00:16:42.450Z,3.14
2023-01-27T00:19:12.120Z,3.15
2023-01-27T00:22:00.469Z,3.15
2023-01-27T00:24:39.316Z,3.15
2023-01-27T00:27:11.076Z,3.15
2023-01-27T00:29:41.887Z,3.11
2023-01-27T00:32:28.676Z,3.06
2023-01-27T00:34:59.249Z,3.11
2023-01-27T00:37:28.970Z,3.15
2023-01-27T00:39:58.632Z,3.16
2023-01-27T00:42:29.282Z,3.12
2023-01-27T00:45:11.427Z,3.08
2023-01-27T00:47:44.728Z,3.13
2023-01-27T00:50:14.975Z,3.13
2023-01-27T00:52:44.758Z,3.16
2023-01-27T00:55:15.999Z,3.19
2023-01-27T00:57:46.920Z,3.17
2023-01-27T01:00:17.537Z,3.16
2023-01-27T01:02:51.532Z,3.23
2023-01-27T01:05:21.251Z,3.27
2023-01-27T01:07:50.890Z,3.34
2023-01-27T01:10:20.575Z,3.36
2023-01-27T01:12:50.173Z,3.36
2023-01-27T01:15:21.648Z,3.38
2023-01-27T01:17:53.937Z,3.41
2023-01-27T01:20:24.851Z,3.44
2023-01-27T01:22:54.576Z,3.44
2023-01-27T01:25:24.205Z,3.43
2023-01-27T01:27:54.056Z,3.42
2023-01-27T01:30:27.549Z,3.42
2023-01-27T01:33:00.404Z,3.44
2023-01-27T01:35:30.063Z,3.42
2023-01-27T01:38:00.777Z,3.44
2023-01-27T01:40:30.431Z,3.46
2023-01-27T01:43:01.120Z,3.48
2023-01-27T01:45:46.023Z,3.50
2023-01-27T01:48:20.994Z,3.50
2023-01-27T01:50:53.918Z,3.52
2023-01-27T01:53:27.355Z,3.53
2023-01-27T01:55:57.142Z,3.54
2023-01-27T01:58:30.147Z,3.54
2023-01-27T02:01:00.795Z,3.58
2023-01-27T02:03:43.869Z,3.58
2023-01-27T02:06:14.570Z,3.58
2023-01-27T02:08:45.347Z,3.57
2023-01-27T02:11:15.349Z,3.58
2023-01-27T02:13:45.470Z,3.08
2023-01-27T02:16:15.859Z,3.60
2023-01-27T02:18:48.447Z,3.65
2023-01-27T02:21:18.066Z,3.66
2023-01-27T02:23:55.812Z,3.64
2023-01-27T02:26:40.203Z,3.66
2023-01-27T02:29:11.451Z,3.63
2023-01-27T02:31:41.769Z,3.64
2023-01-27T02:34:13.017Z,3.67
2023-01-27T02:36:45.072Z,3.66
2023-01-27T02:39:16.259Z,3.64
2023-01-27T02:41:52.025Z,3.64
2023-01-27T02:44:22.725Z,3.67
2023-01-27T02:46:52.649Z,3.69
2023-01-27T02:49:22.595Z,3.70
2023-01-27T02:51:52.615Z,3.71
2023-01-27T02:54:22.609Z,3.69
2023-01-27T02:56:56.008Z,3.64
2023-01-27T02:59:28.230Z,3.57
2023-01-27T03:02:02.031Z,3.53
2023-01-27T03:04:32.019Z,3.58
2023-01-27T03:07:04.030Z,3.60
2023-01-27T03:09:35.977Z,3.60
2023-01-27T03:12:23.321Z,3.62
2023-01-27T03:15:07.152Z,3.64
2023-01-27T03:17:49.488Z,3.63
2023-01-27T03:20:22.341Z,3.69
2023-01-27T03:22:52.428Z,3.64
2023-01-27T03:25:27.609Z,3.61
2023-01-27T03:28:02.390Z,3.59
2023-01-27T03:30:52.425Z,3.61
2023-01-27T03:33:30.484Z,3.43
2023-01-27T03:36:18.679Z,3.65
2023-01-27T03:39:04.637Z,3.61
2023-01-27T03:41:46.761Z,3.54
2023-01-27T03:44:32.043Z,3.47
2023-01-27T03:47:01.778Z,3.52
2023-01-27T03:49:32.255Z,3.49
2023-01-27T03:52:01.966Z,3.44
2023-01-27T03:54:31.682Z,3.44
2023-01-27T03:57:06.564Z,3.43
2023-01-27T03:59:40.199Z,3.42
2023-01-27T04:02:22.755Z,3.42
2023-01-27T04:05:04.893Z,3.43
2023-01-27T04:07:37.561Z,3.42
2023-01-27T04:10:07.593Z,3.46
2023-01-27T04:12:34.636Z,3.50
2023-01-27T04:15:07.364Z,3.57
2023-01-27T04:17:41.169Z,3.59
2023-01-27T04:20:11.720Z,3.63
2023-01-27T04:22:41.433Z,3.68
2023-01-27T04:25:13.290Z,3.68
2023-01-27T04:27:43.808Z,3.71
2023-01-27T04:30:16.772Z,3.71
2023-01-27T04:32:46.459Z,3.65
2023-01-27T04:35:17.174Z,3.68
2023-01-27T04:37:46.832Z,3.67
2023-01-27T04:40:24.207Z,3.69
2023-01-27T04:42:55.836Z,3.66
2023-01-27T04:45:37.292Z,3.64
2023-01-27T04:48:21.373Z,3.64
2023-01-27T04:50:51.318Z,3.63
2023-01-27T04:53:21.152Z,3.65
2023-01-27T04:55:51.726Z,3.66
2023-01-27T04:58:22.282Z,3.70
2023-01-27T05:00:54.852Z,3.71
2023-01-27T05:03:24.610Z,3.73
2023-01-27T05:05:54.307Z,3.71
2023-01-27T05:08:24.090Z,3.72
2023-01-27T05:10:53.799Z,3.72
2023-01-27T05:13:23.710Z,3.71
2023-01-27T05:16:18.104Z,3.73
2023-01-27T05:18:56.335Z,3.75
2023-01-27T05:21:28.392Z,3.76
2023-01-27T05:24:00.325Z,3.75
2023-01-27T05:26:30.971Z,3.77
2023-01-27T05:29:01.296Z,3.74
2023-01-27T05:31:34.280Z,3.73
2023-01-27T05:34:07.622Z,3.70
2023-01-27T05:36:37.304Z,3.66
2023-01-27T05:39:13.066Z,3.65
2023-01-27T05:41:42.975Z,3.64
2023-01-27T05:44:13.943Z,3.64
2023-01-27T05:46:46.204Z,3.64
2023-01-27T05:49:18.216Z,3.65
2023-01-27T05:51:47.991Z,3.66
2023-01-27T05:54:17.671Z,3.66
2023-01-27T05:56:56.382Z,3.66
2023-01-27T05:59:26.096Z,3.66
2023-01-27T06:01:58.388Z,3.68
2023-01-27T06:04:28.093Z,3.68
2023-01-27T06:06:57.941Z,3.68
2023-01-27T06:09:27.584Z,3.68
2023-01-27T06:11:57.168Z,3.73
2023-01-27T06:14:26.992Z,3.71
2023-01-27T06:17:01.144Z,3.72
2023-01-27T06:19:30.819Z,3.74
2023-01-27T06:22:00.630Z,3.74
2023-01-27T06:24:32.789Z,3.75
2023-01-27T06:27:04.335Z,3.74
2023-01-27T06:29:34.176Z,3.74
2023-01-27T06:32:11.319Z,3.74
2023-01-27T06:34:41.343Z,3.76
2023-01-27T06:37:12.937Z,3.75
2023-01-27T06:39:42.750Z,3.74
2023-01-27T06:42:15.410Z,3.73
2023-01-27T06:44:48.413Z,3.70
2023-01-27T06:47:21.914Z,3.69
2023-01-27T06:49:51.776Z,3.69
2023-01-27T06:52:21.379Z,3.68
2023-01-27T06:54:52.393Z,3.66
2023-01-27T06:57:22.412Z,3.66
2023-01-27T06:59:52.403Z,3.62
2023-01-27T07:02:28.015Z,3.58
2023-01-27T07:04:57.660Z,3.59
2023-01-27T07:07:29.750Z,3.57
2023-01-27T07:09:59.552Z,3.58
2023-01-27T07:12:29.429Z,3.55
2023-01-27T07:14:59.559Z,3.56
2023-01-27T07:17:31.849Z,3.54
2023-01-27T07:20:01.460Z,3.55
2023-01-27T07:22:31.215Z,3.50
2023-01-27T07:25:00.902Z,3.49
2023-01-27T07:27:31.425Z,3.48
2023-01-27T07:30:01.422Z,3.46
2023-01-27T07:32:33.742Z,3.47
2023-01-27T07:35:14.770Z,3.47
2023-01-27T07:37:46.727Z,3.46
2023-01-27T07:40:16.758Z,3.45
2023-01-27T07:42:46.505Z,3.47
2023-01-27T07:45:17.968Z,3.49
2023-01-27T07:47:50.330Z,3.51
2023-01-27T07:50:20.130Z,3.53
2023-01-27T07:52:49.939Z,3.54
2023-01-27T07:55:20.007Z,3.54
2023-01-27T07:57:49.684Z,3.56
2023-01-27T08:00:29.336Z,3.58
2023-01-27T08:03:02.087Z,3.60
2023-01-27T08:05:32.314Z,3.57
2023-01-27T08:08:06.400Z,3.60
2023-01-27T08:10:36.005Z,3.62
2023-01-27T08:13:07.256Z,3.66
2023-01-27T08:15:37.001Z,3.71
2023-01-27T08:18:09.260Z,3.73
2023-01-27T08:20:39.195Z,3.76
2023-01-27T08:23:08.904Z,3.72
2023-01-27T08:25:38.510Z,3.73
2023-01-27T08:28:08.316Z,3.76
2023-01-27T08:30:38.002Z,3.74
2023-01-27T08:33:11.016Z,3.74
2023-01-27T08:35:44.664Z,3.75
2023-01-27T08:38:15.174Z,3.75
2023-01-27T08:40:45.516Z,3.76
2023-01-27T08:43:16.573Z,3.76
2023-01-27T08:45:47.182Z,3.76
2023-01-27T08:48:22.862Z,3.73
2023-01-27T08:50:53.149Z,3.72
2023-01-27T08:53:24.783Z,3.73
2023-01-27T08:55:56.562Z,3.69
2023-01-27T08:58:26.946Z,3.65
2023-01-27T09:00:56.707Z,3.63
2023-01-27T09:03:31.753Z,3.69
2023-01-27T09:06:03.625Z,3.69
2023-01-27T09:08:33.998Z,3.75
2023-01-27T09:11:03.816Z,3.70
2023-01-27T09:13:33.599Z,3.78
2023-01-27T09:16:03.549Z,3.87
2023-01-27T09:18:36.101Z,3.87
2023-01-27T09:21:07.143Z,3.85
2023-01-27T09:23:37.981Z,3.85
2023-01-27T09:26:08.173Z,3.88
2023-01-27T09:28:38.041Z,3.95
2023-01-27T09:31:11.220Z,4.01
2023-01-27T09:33:43.578Z,4.00
2023-01-27T09:36:16.837Z,3.96
2023-01-27T09:38:49.035Z,3.94
2023-01-27T09:41:25.269Z,3.93
2023-01-27T09:44:14.497Z,3.96
2023-01-27T09:47:01.657Z,3.91
2023-01-27T09:49:54.099Z,3.92
2023-01-27T09:52:46.909Z,3.93
2023-01-27T09:55:20.542Z,3.96
2023-01-27T09:57:55.621Z,4.00
2023-01-27T10:00:33.394Z,4.05
2023-01-27T10:03:11.565Z,4.09
2023-01-27T10:05:56.414Z,4.15
2023-01-27T10:08:43.858Z,4.14
2023-01-27T10:11:19.197Z,4.12
2023-01-27T10:14:01.748Z,4.13
2023-01-27T10:16:42.746Z,4.16
2023-01-27T10:19:35.869Z,4.23
2023-01-27T10:22:14.241Z,4.24
2023-01-27T10:24:53.968Z,4.19
2023-01-27T10:27:24.957Z,3.96
2023-01-27T10:29:59.623Z,4.21
2023-01-27T10:32:30.499Z,4.16
2023-01-27T10:35:10.648Z,4.11
2023-01-27T10:37:49.770Z,4.06
2023-01-27T10:40:22.764Z,4.05
2023-01-27T10:42:55.761Z,4.05
2023-01-27T10:45:29.732Z,4.01
2023-01-27T10:48:05.115Z,4.01
2023-01-27T10:50:37.318Z,4.01
2023-01-27T10:53:15.118Z,3.97
2023-01-27T10:55:49.572Z,3.93
2023-01-27T10:58:21.866Z,3.89
2023-01-27T11:03:47.375Z,4.00
2023-01-27T11:06:20.698Z,4.06
2023-01-27T11:08:55.609Z,4.05
2023-01-27T11:11:39.490Z,3.98
2023-01-27T11:14:14.978Z,3.96
2023-01-27T11:16:47.089Z,3.93
2023-01-27T11:19:19.795Z,3.92
2023-01-27T11:22:06.292Z,3.93
2023-01-27T11:24:45.560Z,3.95
2023-01-27T11:27:19.848Z,3.92
2023-01-27T11:29:53.599Z,3.92
2023-01-27T11:32:28.921Z,3.95
2023-01-27T11:35:03.212Z,3.98
2023-01-27T11:37:40.408Z,3.93
2023-01-27T11:40:20.882Z,3.96
2023-01-27T11:42:52.050Z,3.96
2023-01-27T11:45:23.136Z,3.96
2023-01-27T11:47:57.203Z,4.00
2023-01-27T11:50:30.702Z,3.97
2023-01-27T11:53:06.492Z,3.94
2023-01-27T11:55:41.115Z,3.94
2023-01-27T11:58:16.692Z,3.96
2023-01-27T12:00:48.159Z,4.00
2023-01-27T12:03:21.955Z,3.86
2023-01-27T12:05:56.679Z,4.11
2023-01-27T12:08:39.821Z,4.12
2023-01-27T12:11:24.354Z,4.15
2023-01-27T12:14:10.229Z,4.22
2023-01-27T12:16:47.893Z,4.23
2023-01-27T12:19:23.751Z,4.16
2023-01-27T12:21:59.715Z,4.12
2023-01-27T12:24:34.037Z,4.12
2023-01-27T12:27:11.429Z,4.14
2023-01-27T12:29:47.261Z,4.17
2023-01-27T12:32:20.625Z,4.12
2023-01-27T12:34:56.334Z,4.12
2023-01-27T12:37:29.330Z,4.12
2023-01-27T12:40:02.449Z,4.11
2023-01-27T12:42:47.396Z,4.13
2023-01-27T12:45:25.431Z,4.14
2023-01-27T12:48:05.003Z,3.87
2023-01-27T12:50:35.526Z,4.13
2023-01-27T12:53:29.832Z,4.19
2023-01-27T12:56:01.760Z,4.23
2023-01-27T12:58:52.754Z,4.17
2023-01-27T13:01:34.040Z,4.12
2023-01-27T13:04:09.415Z,4.13
2023-01-27T13:06:58.976Z,4.13
2023-01-27T13:09:30.870Z,4.13
2023-01-27T13:12:02.089Z,4.05
2023-01-27T13:14:35.556Z,4.01
2023-01-27T13:17:05.123Z,3.97
2023-01-27T13:19:44.721Z,3.90
2023-01-27T13:22:20.161Z,3.89
2023-01-27T13:24:55.829Z,3.83
2023-01-27T13:27:28.318Z,3.81
2023-01-27T13:30:00.771Z,3.88
2023-01-27T13:32:51.185Z,3.85
2023-01-27T13:35:27.726Z,3.87
2023-01-27T13:38:05.075Z,3.87
2023-01-27T13:40:37.507Z,3.90
2023-01-27T13:43:12.625Z,3.88
2023-01-27T13:45:43.813Z,3.86
2023-01-27T13:48:17.346Z,3.80
2023-01-27T13:50:52.771Z,3.82
2023-01-27T13:53:22.923Z,3.72
2023-01-27T13:55:59.515Z,3.67
2023-01-27T13:58:34.565Z,3.67
2023-01-27T14:01:12.220Z,3.61
2023-01-27T14:03:50.400Z,3.60
2023-01-27T14:06:30.487Z,3.68
2023-01-27T14:09:10.903Z,3.66
2023-01-27T14:11:44.976Z,3.73
2023-01-27T14:14:25.794Z,3.72
2023-01-27T14:17:03.042Z,3.70
2023-01-27T14:19:40.381Z,3.67
2023-01-27T14:22:17.283Z,3.62
2023-01-27T14:24:50.293Z,3.61
2023-01-27T14:27:22.844Z,3.68
2023-01-27T14:29:56.830Z,3.79
2023-01-27T14:32:30.146Z,3.85
2023-01-27T14:35:10.018Z,3.84
2023-01-27T14:37:48.512Z,3.76
2023-01-27T14:40:23.894Z,3.71
2023-01-27T14:43:06.508Z,3.64
2023-01-27T14:45:38.616Z,3.61
2023-01-27T14:48:18.875Z,3.64
2023-01-27T14:50:52.832Z,3.69
2023-01-27T14:53:32.603Z,3.67
2023-01-27T14:56:07.513Z,3.69
2023-01-27T14:58:45.445Z,3.43
2023-01-27T15:01:24.851Z,3.63
2023-01-27T15:04:05.360Z,3.59
2023-01-27T15:06:39.067Z,3.57
2023-01-27T15:09:17.134Z,3.53
2023-01-27T15:11:54.724Z,3.52
2023-01-27T15:14:41.825Z,3.55
2023-01-27T15:17:18.352Z,3.59
2023-01-27T15:20:03.144Z,3.59
2023-01-27T15:22:45.278Z,3.60
2023-01-27T15:25:29.758Z,3.57
2023-01-27T15:28:00.199Z,3.53
2023-01-27T15:30:30.726Z,3.53
2023-01-27T15:33:00.664Z,3.49
2023-01-27T15:35:38.091Z,3.45
2023-01-27T15:38:22.676Z,3.44
2023-01-27T15:41:02.087Z,3.42
2023-01-27T15:43:36.125Z,3.39
2023-01-27T15:46:26.822Z,3.34
2023-01-27T15:48:57.861Z,3.36
2023-01-27T15:51:36.397Z,3.19
2023-01-27T15:54:06.856Z,3.35
2023-01-27T15:56:50.924Z,3.38
2023-01-27T15:59:23.900Z,3.37
2023-01-27T16:02:20.213Z,3.35
2023-01-27T16:05:08.527Z,3.33
2023-01-27T16:07:39.968Z,3.35
2023-01-27T16:10:16.816Z,3.33
2023-01-27T16:12:49.843Z,3.33
2023-01-27T16:15:24.007Z,3.42
2023-01-27T16:18:04.370Z,3.42
2023-01-27T16:20:36.000Z,3.33
2023-01-27T16:23:11.256Z,3.25
2023-01-27T16:25:44.117Z,3.19
2023-01-27T16:28:21.162Z,3.15
2023-01-27T16:31:04.792Z,3.16
2023-01-27T16:33:36.904Z,3.18
2023-01-27T16:36:09.148Z,3.14
2023-01-27T16:38:40.523Z,3.10
2023-01-27T16:41:21.033Z,3.06
2023-01-27T16:43:56.793Z,3.05
2023-01-27T16:46:31.500Z,3.11
2023-01-27T16:49:01.755Z,3.05
2023-01-27T16:51:32.455Z,3.01
2023-01-27T16:54:05.111Z,2.95
2023-01-27T16:56:36.549Z,2.95
2023-01-27T16:59:10.276Z,2.91
2023-01-27T17:01:42.697Z,2.89
2023-01-27T17:04:20.136Z,2.89
2023-01-27T17:06:50.965Z,2.88
2023-01-27T17:09:36.600Z,2.89
2023-01-27T17:12:07.886Z,2.87
2023-01-27T17:14:42.736Z,2.89
2023-01-27T17:17:22.625Z,2.91
2023-01-27T17:19:54.841Z,2.88
2023-01-27T17:22:26.088Z,2.90
2023-01-27T17:24:57.989Z,2.88
2023-01-27T17:27:29.531Z,2.88
2023-01-27T17:30:05.310Z,2.84
2023-01-27T17:32:38.461Z,2.83
2023-01-27T17:35:09.516Z,2.81
2023-01-27T17:37:47.662Z,2.81
2023-01-27T17:40:18.733Z,2.82
2023-01-27T17:42:50.574Z,2.81
2023-01-27T17:45:30.505Z,2.78
2023-01-27T17:48:04.847Z,2.80
2023-01-27T17:50:37.687Z,2.81
2023-01-27T17:53:22.381Z,2.80
2023-01-27T17:55:51.965Z,2.80
2023-01-27T17:58:25.343Z,2.82
2023-01-27T18:00:58.891Z,2.79
2023-01-27T18:03:29.804Z,2.76
2023-01-27T18:06:00.120Z,2.75
2023-01-27T18:08:29.949Z,2.71
2023-01-27T18:11:11.221Z,2.70
2023-01-27T18:13:43.178Z,2.67
2023-01-27T18:16:24.583Z,2.66
2023-01-27T18:18:54.780Z,2.72
2023-01-27T18:21:26.149Z,2.68
2023-01-27T18:23:57.425Z,2.65
2023-01-27T18:26:37.243Z,2.66
2023-01-27T18:29:18.717Z,2.66
2023-01-27T18:31:52.791Z,2.65
2023-01-27T18:34:35.577Z,2.64
2023-01-27T18:37:24.087Z,2.64
2023-01-27T18:39:53.749Z,2.64
2023-01-27T18:42:26.112Z,2.62
2023-01-27T18:44:56.097Z,2.61
2023-01-27T18:47:36.502Z,2.63
2023-01-27T18:50:18.238Z,2.63
2023-01-27T18:52:48.977Z,2.65
2023-01-27T18:55:20.389Z,2.74
2023-01-27T18:57:51.363Z,2.72
2023-01-27T19:00:22.585Z,2.72
2023-01-27T19:02:56.395Z,2.72
2023-01-27T19:05:27.296Z,2.67
2023-01-27T19:07:57.071Z,2.69
2023-01-27T19:10:28.507Z,2.66
2023-01-27T19:13:07.248Z,2.67
2023-01-27T19:15:37.904Z,2.65
2023-01-27T19:18:27.881Z,2.63
2023-01-27T19:20:57.605Z,2.60
2023-01-27T19:23:28.767Z,2.62
2023-01-27T19:26:00.037Z,2.58
2023-01-27T19:28:38.808Z,2.58
2023-01-27T19:31:09.336Z,2.59
2023-01-27T19:33:45.180Z,2.59
2023-01-27T19:36:26.870Z,2.58
2023-01-27T19:39:00.984Z,2.59
2023-01-27T19:41:30.928Z,2.59
2023-01-27T19:44:00.705Z,2.60
2023-01-27T19:46:30.358Z,2.62
2023-01-27T19:49:02.588Z,2.64
2023-01-27T19:51:32.787Z,2.62
2023-01-27T19:54:05.474Z,2.64
2023-01-27T19:56:35.182Z,2.62
2023-01-27T19:59:09.622Z,2.63
2023-01-27T20:01:39.312Z,2.65
2023-01-27T20:04:11.853Z,2.73
2023-01-27T20:06:41.820Z,2.70
2023-01-27T20:09:13.097Z,2.67
2023-01-27T20:11:45.770Z,2.65
2023-01-27T20:14:16.472Z,2.64
2023-01-27T20:16:46.320Z,2.63
2023-01-27T20:19:19.739Z,2.62
2023-01-27T20:21:49.990Z,2.60
2023-01-27T20:24:20.399Z,2.60
2023-01-27T20:26:50.157Z,2.57
2023-01-27T20:29:19.836Z,2.55
2023-01-27T20:31:49.794Z,2.54
2023-01-27T20:34:22.341Z,2.54
2023-01-27T20:36:52.291Z,2.57
2023-01-27T20:39:22.054Z,2.65
2023-01-27T20:41:52.655Z,2.61
2023-01-27T20:44:28.744Z,2.62
2023-01-27T20:47:00.779Z,2.57
2023-01-27T20:49:33.002Z,2.58
2023-01-27T20:52:08.551Z,2.55
2023-01-27T20:54:38.235Z,2.54
2023-01-27T20:57:10.720Z,2.51
2023-01-27T20:59:40.328Z,2.49
2023-01-27T21:02:12.547Z,2.47
2023-01-27T21:04:51.443Z,2.47
2023-01-27T21:07:21.232Z,2.47
2023-01-27T21:09:51.379Z,2.44
2023-01-27T21:12:21.033Z,2.44
2023-01-27T21:14:50.778Z,2.45
2023-01-27T21:17:20.510Z,2.43
2023-01-27T21:19:52.833Z,2.40
2023-01-27T21:22:22.762Z,2.36
2023-01-27T21:24:52.445Z,2.32
2023-01-27T21:27:22.728Z,2.33
2023-01-27T21:29:53.007Z,2.33
2023-01-27T21:32:22.946Z,2.27
2023-01-27T21:34:56.955Z,2.23
2023-01-27T21:37:26.734Z,2.20
2023-01-27T21:39:56.305Z,2.22
2023-01-27T21:42:38.402Z,2.22
2023-01-27T21:45:17.966Z,2.25
2023-01-27T21:47:47.701Z,2.26
2023-01-27T21:50:20.268Z,2.26
2023-01-27T21:52:52.940Z,2.23
2023-01-27T21:55:23.152Z,2.25
2023-01-27T21:57:56.210Z,2.22
2023-01-27T22:00:26.970Z,2.20
2023-01-27T22:02:57.337Z,2.19
2023-01-27T22:05:30.350Z,2.17
2023-01-27T22:08:01.979Z,2.19
2023-01-27T22:10:38.212Z,2.22
2023-01-27T22:13:09.712Z,2.22
2023-01-27T22:15:41.010Z,2.23
2023-01-27T22:18:13.473Z,2.25
2023-01-27T22:20:45.675Z,2.32
2023-01-27T22:23:19.072Z,2.33
2023-01-27T22:25:50.863Z,2.35
2023-01-27T22:28:22.326Z,2.29
2023-01-27T22:30:52.061Z,2.24
2023-01-27T22:33:22.035Z,2.24
2023-01-27T22:36:00.935Z,2.24
2023-01-27T22:38:30.727Z,2.25
2023-01-27T22:41:01.252Z,2.27
2023-01-27T22:43:31.041Z,2.34
2023-01-27T22:46:02.563Z,2.36
2023-01-27T22:48:32.370Z,2.33
2023-01-27T22:51:08.085Z,2.31
2023-01-27T22:53:37.688Z,2.30
2023-01-27T22:56:07.706Z,2.28
2023-01-27T22:58:37.436Z,2.26
2023-01-27T23:01:08.011Z,2.31
2023-01-27T23:03:37.671Z,2.31
2023-01-27T23:06:10.879Z,2.29
2023-01-27T23:08:40.554Z,2.24
2023-01-27T23:11:10.481Z,2.22
2023-01-27T23:13:40.467Z,2.25
2023-01-27T23:16:11.818Z,2.27
2023-01-27T23:18:41.602Z,2.25
2023-01-27T23:21:14.262Z,2.28
2023-01-27T23:23:45.285Z,2.25
2023-01-27T23:26:25.656Z,2.23
2023-01-27T23:28:57.414Z,2.24
2023-01-27T23:31:27.958Z,2.24
2023-01-27T23:34:00.088Z,2.25
2023-01-27T23:36:32.387Z,2.29
2023-01-27T23:39:02.147Z,2.36
2023-01-27T23:41:31.826Z,2.11
2023-01-27T23:44:01.551Z,2.35
2023-01-27T23:46:31.350Z,2.35
2023-01-27T23:49:01.025Z,2.33
2023-01-27T23:51:33.260Z,2.33
2023-01-27T23:54:03.183Z,2.28
2023-01-27T23:56:32.962Z,2.27
2023-01-27T23:59:02.907Z,2.25
